createdAt,value
2023-03-26T00:00:59.978Z,78.607178
2023-03-26T00:02:09.742Z,78.607178
2023-03-26T00:03:19.470Z,78.503418
2023-03-26T00:04:29.160Z,78.503418
2023-03-26T00:05:37.904Z,78.607178
2023-03-26T00:06:46.638Z,78.503418
2023-03-26T00:07:55.340Z,78.466797
2023-03-26T00:09:05.021Z,78.466797
2023-03-26T00:10:14.725Z,78.363037
2023-03-26T00:11:24.472Z,78.363037
2023-03-26T00:12:33.160Z,78.363037
2023-03-26T00:13:42.876Z,78.363037
2023-03-26T00:14:52.679Z,78.363037
2023-03-26T00:16:02.363Z,78.363037
2023-03-26T00:17:11.102Z,78.363037
2023-03-26T00:18:19.799Z,78.363037
2023-03-26T00:19:29.528Z,78.466797
2023-03-26T00:20:39.214Z,78.466797
2023-03-26T00:21:47.949Z,78.607178
2023-03-26T00:22:57.649Z,78.814697
2023-03-26T00:24:07.355Z,78.814697
2023-03-26T00:25:16.003Z,78.918457
2023-03-26T00:26:25.695Z,78.918457
2023-03-26T00:27:34.423Z,79.016113
2023-03-26T00:28:43.084Z,79.119873
2023-03-26T00:29:52.785Z,79.223633
2023-03-26T00:31:01.530Z,79.223633
2023-03-26T00:32:10.215Z,79.223633
2023-03-26T00:33:19.953Z,79.223633
2023-03-26T00:34:28.629Z,79.223633
2023-03-26T00:35:37.396Z,79.327393
2023-03-26T00:36:47.469Z,79.327393
2023-03-26T00:37:55.818Z,79.327393
2023-03-26T00:39:05.562Z,79.223633
2023-03-26T00:40:15.235Z,79.223633
2023-03-26T00:41:23.904Z,79.223633
2023-03-26T00:42:33.642Z,79.223633
2023-03-26T00:43:43.341Z,79.119873
2023-03-26T00:44:53.171Z,79.119873
2023-03-26T00:46:02.914Z,79.016113
2023-03-26T00:47:11.589Z,79.119873
2023-03-26T00:48:26.418Z,79.119873
2023-03-26T00:49:32.011Z,79.119873
2023-03-26T00:50:40.689Z,79.223633
2023-03-26T00:51:50.445Z,79.364014
2023-03-26T00:53:00.214Z,79.571533
2023-03-26T00:54:09.917Z,79.669189
2023-03-26T00:55:19.618Z,79.772949
2023-03-26T00:56:28.361Z,79.669189
2023-03-26T00:57:38.143Z,79.669189
2023-03-26T00:58:46.816Z,79.571533
2023-03-26T00:59:55.522Z,79.669189
2023-03-26T01:01:05.287Z,79.669189
2023-03-26T01:02:14.083Z,79.467773
2023-03-26T01:03:27.073Z,79.431152
2023-03-26T01:04:34.929Z,79.431152
2023-03-26T01:05:44.443Z,79.571533
2023-03-26T01:06:54.140Z,79.364014
2023-03-26T01:08:01.871Z,79.260254
2023-03-26T01:09:11.573Z,79.364014
2023-03-26T01:10:21.274Z,79.364014
2023-03-26T01:11:29.990Z,79.364014
2023-03-26T01:12:38.717Z,79.260254
2023-03-26T01:13:48.425Z,79.260254
2023-03-26T01:14:58.109Z,79.364014
2023-03-26T01:16:07.807Z,79.364014
2023-03-26T01:17:17.510Z,79.467773
2023-03-26T01:18:26.251Z,79.571533
2023-03-26T01:19:35.902Z,79.669189
2023-03-26T01:20:44.586Z,79.772949
2023-03-26T01:21:54.272Z,79.876709
2023-03-26T01:23:02.965Z,79.980469
2023-03-26T01:24:11.654Z,80.084229
2023-03-26T01:25:21.388Z,80.187988
2023-03-26T01:26:29.070Z,80.285645
2023-03-26T01:27:37.785Z,80.493164
2023-03-26T01:28:47.466Z,80.529785
2023-03-26T01:29:57.156Z,80.633545
2023-03-26T01:31:06.901Z,80.737305
2023-03-26T01:32:16.598Z,80.841064
2023-03-26T01:33:25.304Z,80.944824
2023-03-26T01:34:34.929Z,81.048584
2023-03-26T01:35:43.628Z,80.944824
2023-03-26T01:36:53.301Z,81.048584
2023-03-26T01:38:03.052Z,81.14624
2023-03-26T01:39:11.738Z,81.35376
2023-03-26T01:40:20.470Z,81.45752
2023-03-26T01:41:29.179Z,81.5979
2023-03-26T01:42:38.896Z,81.70166
2023-03-26T01:43:48.607Z,81.90918
2023-03-26T01:44:56.373Z,82.006836
2023-03-26T01:46:05.047Z,82.006836
2023-03-26T01:47:14.795Z,82.006836
2023-03-26T01:48:24.484Z,82.110596
2023-03-26T01:49:33.188Z,82.214355
2023-03-26T01:50:42.911Z,82.318115
2023-03-26T01:51:51.711Z,82.318115
2023-03-26T01:53:01.410Z,82.318115
2023-03-26T01:54:09.195Z,82.318115
2023-03-26T01:55:18.107Z,82.421875
2023-03-26T01:56:27.816Z,82.318115
2023-03-26T01:57:37.512Z,82.421875
2023-03-26T01:58:46.402Z,82.525635
2023-03-26T01:59:56.086Z,82.525635
2023-03-26T02:01:05.821Z,82.629395
2023-03-26T02:02:14.558Z,82.727051
2023-03-26T02:03:22.468Z,82.830811
2023-03-26T02:04:32.031Z,82.830811
2023-03-26T02:05:41.746Z,82.830811
2023-03-26T02:06:51.464Z,82.93457
2023-03-26T02:08:00.239Z,83.074951
2023-03-26T02:09:09.950Z,83.074951
2023-03-26T02:10:19.644Z,83.178711
2023-03-26T02:11:35.239Z,83.282471
2023-03-26T02:12:40.005Z,83.282471
2023-03-26T02:13:49.790Z,83.282471
2023-03-26T02:14:58.479Z,83.38623
2023-03-26T02:16:08.197Z,83.282471
2023-03-26T02:17:17.914Z,83.282471
2023-03-26T02:18:26.632Z,83.282471
2023-03-26T02:19:35.295Z,83.282471
2023-03-26T02:20:42.969Z,83.38623
2023-03-26T02:21:52.711Z,83.48999
2023-03-26T02:23:00.455Z,83.48999
2023-03-26T02:24:09.170Z,83.59375
2023-03-26T02:25:16.856Z,83.48999
2023-03-26T02:26:25.571Z,83.38623
2023-03-26T02:27:35.287Z,83.38623
2023-03-26T02:28:44.051Z,83.38623
2023-03-26T02:29:52.723Z,83.282471
2023-03-26T02:31:02.384Z,83.178711
2023-03-26T02:32:12.124Z,83.24585
2023-03-26T02:33:21.830Z,83.178711
2023-03-26T02:34:31.606Z,83.178711
2023-03-26T02:35:41.338Z,83.14209
2023-03-26T02:36:51.037Z,83.074951
2023-03-26T02:37:59.697Z,83.14209
2023-03-26T02:39:08.412Z,82.93457
2023-03-26T02:40:18.145Z,82.93457
2023-03-26T02:41:26.844Z,82.93457
2023-03-26T02:42:36.527Z,82.830811
2023-03-26T02:43:46.401Z,82.727051
2023-03-26T02:44:56.092Z,82.727051
2023-03-26T02:46:05.983Z,82.629395
2023-03-26T02:47:14.522Z,82.629395
2023-03-26T02:48:23.194Z,82.629395
2023-03-26T02:49:33.003Z,82.629395
2023-03-26T02:50:41.716Z,82.525635
2023-03-26T02:51:51.395Z,82.629395
2023-03-26T02:53:00.105Z,82.525635
2023-03-26T02:54:09.823Z,82.629395
2023-03-26T02:55:19.482Z,82.629395
2023-03-26T02:56:27.163Z,82.629395
2023-03-26T02:57:36.835Z,82.727051
2023-03-26T02:58:46.550Z,82.830811
2023-03-26T02:59:56.240Z,82.93457
2023-03-26T03:01:04.940Z,82.93457
2023-03-26T03:02:14.621Z,82.93457
2023-03-26T03:03:23.282Z,82.93457
2023-03-26T03:04:32.997Z,82.93457
2023-03-26T03:05:42.670Z,82.93457
2023-03-26T03:06:51.464Z,83.03833
2023-03-26T03:08:01.092Z,82.93457
2023-03-26T03:09:10.801Z,83.03833
2023-03-26T03:10:19.489Z,83.14209
2023-03-26T03:11:29.171Z,83.24585
2023-03-26T03:12:38.850Z,83.24585
2023-03-26T03:13:48.548Z,83.349609
2023-03-26T03:14:56.305Z,83.349609
2023-03-26T03:16:04.997Z,83.349609
2023-03-26T03:17:14.690Z,83.24585
2023-03-26T03:18:23.371Z,83.14209
2023-03-26T03:19:32.131Z,83.03833
2023-03-26T03:20:40.826Z,83.14209
2023-03-26T03:21:49.522Z,83.14209
2023-03-26T03:22:59.296Z,83.14209
2023-03-26T03:24:08.984Z,83.14209
2023-03-26T03:25:16.671Z,83.14209
2023-03-26T03:26:26.370Z,83.14209
2023-03-26T03:27:36.089Z,83.14209
2023-03-26T03:28:45.770Z,83.14209
2023-03-26T03:29:54.496Z,83.24585
2023-03-26T03:31:04.214Z,83.349609
2023-03-26T03:32:13.914Z,83.24585
2023-03-26T03:33:21.638Z,83.349609
2023-03-26T03:34:29.324Z,83.349609
2023-03-26T03:35:38.058Z,83.349609
2023-03-26T03:36:47.720Z,83.349609
2023-03-26T03:37:57.434Z,83.349609
2023-03-26T03:39:06.217Z,83.349609
2023-03-26T03:40:15.922Z,83.447266
2023-03-26T03:41:25.673Z,83.654785
2023-03-26T03:42:34.370Z,83.758545
2023-03-26T03:43:43.110Z,83.654785
2023-03-26T03:44:52.851Z,83.654785
2023-03-26T03:46:01.575Z,83.654785
2023-03-26T03:47:11.231Z,83.654785
2023-03-26T03:48:19.986Z,83.654785
2023-03-26T03:49:28.689Z,83.758545
2023-03-26T03:50:38.388Z,83.654785
2023-03-26T03:51:46.076Z,83.654785
2023-03-26T03:52:54.745Z,83.654785
2023-03-26T03:54:04.489Z,83.654785
2023-03-26T03:55:14.250Z,83.862305
2023-03-26T03:56:23.944Z,83.758545
2023-03-26T03:57:32.663Z,84.002686
2023-03-26T03:58:42.354Z,84.002686
2023-03-26T03:59:52.071Z,84.002686
2023-03-26T04:01:01.802Z,84.106445
2023-03-26T04:02:11.565Z,84.210205
2023-03-26T04:03:33.595Z,84.210205
2023-03-26T04:04:31.942Z,84.313965
2023-03-26T04:05:40.668Z,84.313965
2023-03-26T04:06:50.381Z,84.515381
2023-03-26T04:07:59.093Z,84.417725
2023-03-26T04:09:07.802Z,84.619141
2023-03-26T04:10:16.737Z,84.7229
2023-03-26T04:11:25.393Z,84.619141
2023-03-26T04:12:35.074Z,84.7229
2023-03-26T04:13:43.851Z,84.7229
2023-03-26T04:14:53.609Z,84.7229
2023-03-26T04:16:02.340Z,84.7229
2023-03-26T04:17:11.028Z,84.7229
2023-03-26T04:18:19.743Z,84.82666
2023-03-26T04:19:29.481Z,84.93042
2023-03-26T04:20:39.249Z,84.93042
2023-03-26T04:21:46.956Z,84.93042
2023-03-26T04:22:56.703Z,85.03418
2023-03-26T04:24:06.371Z,85.137939
2023-03-26T04:25:14.131Z,85.241699
2023-03-26T04:26:22.848Z,85.241699
2023-03-26T04:27:32.578Z,85.241699
2023-03-26T04:28:42.406Z,85.137939
2023-03-26T04:29:52.267Z,84.93042
2023-03-26T04:31:01.041Z,85.03418
2023-03-26T04:32:10.699Z,84.93042
2023-03-26T04:33:20.492Z,84.93042
2023-03-26T04:34:29.203Z,85.137939
2023-03-26T04:35:37.989Z,85.339355
2023-03-26T04:36:47.673Z,85.241699
2023-03-26T04:37:56.356Z,85.241699
2023-03-26T04:39:06.090Z,85.339355
2023-03-26T04:40:14.812Z,85.443115
2023-03-26T04:41:23.528Z,85.546875
2023-03-26T04:42:33.313Z,85.443115
2023-03-26T04:43:42.989Z,85.443115
2023-03-26T04:44:52.694Z,85.339355
2023-03-26T04:46:02.552Z,85.137939
2023-03-26T04:47:11.248Z,85.095215
2023-03-26T04:48:20.003Z,84.991455
2023-03-26T04:49:29.717Z,84.887695
2023-03-26T04:50:39.474Z,84.790039
2023-03-26T04:51:49.264Z,84.58252
2023-03-26T04:52:58.985Z,84.58252
2023-03-26T04:54:06.693Z,84.47876
2023-03-26T04:55:16.486Z,84.375
2023-03-26T04:56:26.221Z,84.27124
2023-03-26T04:57:35.024Z,84.375
2023-03-26T04:58:44.774Z,84.338379
2023-03-26T04:59:55.505Z,84.130859
2023-03-26T05:01:10.095Z,84.0271
2023-03-26T05:02:14.939Z,83.92334
2023-03-26T05:03:23.771Z,84.0271
2023-03-26T05:04:33.526Z,83.92334
2023-03-26T05:05:42.301Z,83.92334
2023-03-26T05:06:51.007Z,84.0271
2023-03-26T05:07:59.738Z,84.0271
2023-03-26T05:09:08.443Z,84.0271
2023-03-26T05:10:17.140Z,84.130859
2023-03-26T05:11:25.902Z,84.0271
2023-03-26T05:12:34.643Z,84.0271
2023-03-26T05:13:44.353Z,84.0271
2023-03-26T05:14:53.165Z,84.0271
2023-03-26T05:16:02.882Z,83.92334
2023-03-26T05:17:11.573Z,83.825684
2023-03-26T05:18:20.322Z,83.721924
2023-03-26T05:19:30.073Z,83.825684
2023-03-26T05:20:38.889Z,83.825684
2023-03-26T05:21:47.621Z,83.721924
2023-03-26T05:22:57.374Z,83.721924
2023-03-26T05:24:07.079Z,83.618164
2023-03-26T05:25:16.842Z,83.477783
2023-03-26T05:26:26.600Z,83.477783
2023-03-26T05:27:36.374Z,83.477783
2023-03-26T05:28:46.116Z,83.477783
2023-03-26T05:29:55.869Z,83.477783
2023-03-26T05:31:05.687Z,83.477783
2023-03-26T05:32:15.453Z,83.374023
2023-03-26T05:33:25.267Z,83.270264
2023-03-26T05:34:34.947Z,83.166504
2023-03-26T05:35:44.703Z,83.270264
2023-03-26T05:36:53.373Z,83.166504
2023-03-26T05:38:03.183Z,83.166504
2023-03-26T05:39:10.868Z,83.062744
2023-03-26T05:40:19.632Z,83.062744
2023-03-26T05:41:29.404Z,83.062744
2023-03-26T05:42:39.142Z,83.166504
2023-03-26T05:43:47.960Z,82.958984
2023-03-26T05:44:57.688Z,82.958984
2023-03-26T05:46:07.489Z,82.653809
2023-03-26T05:47:17.145Z,82.550049
2023-03-26T05:48:24.847Z,82.617188
2023-03-26T05:49:34.576Z,82.409668
2023-03-26T05:50:44.324Z,82.513428
2023-03-26T05:51:55.487Z,82.714844
2023-03-26T05:53:03.065Z,82.513428
2023-03-26T05:54:11.751Z,82.714844
2023-03-26T05:55:20.434Z,82.098389
2023-03-26T05:56:30.242Z,82.098389
2023-03-26T05:57:38.950Z,82.409668
2023-03-26T05:58:49.698Z,82.409668
2023-03-26T05:59:58.465Z,82.617188
2023-03-26T06:01:08.183Z,82.513428
2023-03-26T06:02:17.062Z,82.617188
2023-03-26T06:03:26.766Z,83.129883
2023-03-26T06:04:36.421Z,82.922363
2023-03-26T06:05:44.112Z,82.714844
2023-03-26T06:06:53.898Z,82.818604
2023-03-26T06:08:03.593Z,82.922363
2023-03-26T06:09:12.357Z,82.922363
2023-03-26T06:10:22.031Z,83.026123
2023-03-26T06:11:31.878Z,82.922363
2023-03-26T06:12:41.547Z,82.922363
2023-03-26T06:13:51.234Z,83.026123
2023-03-26T06:15:01.000Z,83.129883
2023-03-26T06:16:10.781Z,83.026123
2023-03-26T06:17:21.589Z,83.233643
2023-03-26T06:18:31.335Z,83.233643
2023-03-26T06:19:41.050Z,83.129883
2023-03-26T06:20:49.797Z,83.331299
2023-03-26T06:21:59.591Z,83.233643
2023-03-26T06:23:09.329Z,83.331299
2023-03-26T06:24:19.070Z,83.129883
2023-03-26T06:25:28.792Z,83.233643
2023-03-26T06:26:37.626Z,83.435059
2023-03-26T06:27:47.367Z,83.435059
2023-03-26T06:28:57.184Z,83.538818
2023-03-26T06:30:06.960Z,83.642578
2023-03-26T06:31:16.782Z,83.502197
2023-03-26T06:32:25.522Z,83.398438
2023-03-26T06:33:35.216Z,83.605957
2023-03-26T06:34:44.980Z,83.538818
2023-03-26T06:35:54.789Z,83.746338
2023-03-26T06:37:03.552Z,83.746338
2023-03-26T06:38:12.306Z,83.538818
2023-03-26T06:39:21.063Z,83.398438
2023-03-26T06:40:29.837Z,83.605957
2023-03-26T06:41:38.584Z,83.398438
2023-03-26T06:43:07.196Z,83.502197
2023-03-26T06:43:59.183Z,83.154297
2023-03-26T06:45:07.895Z,82.843018
2023-03-26T06:46:16.668Z,82.537842
2023-03-26T06:47:26.364Z,82.128906
2023-03-26T06:48:35.125Z,82.232666
2023-03-26T06:49:45.372Z,82.025146
2023-03-26T06:50:53.723Z,81.781006
2023-03-26T06:52:01.230Z,81.884766
2023-03-26T06:53:10.973Z,81.573486
2023-03-26T06:54:19.684Z,81.781006
2023-03-26T06:55:28.439Z,81.47583
2023-03-26T06:56:38.237Z,81.573486
2023-03-26T06:57:46.980Z,81.268311
2023-03-26T06:58:56.730Z,81.060791
2023-03-26T07:00:05.493Z,80.963135
2023-03-26T07:01:13.297Z,80.822754
2023-03-26T07:02:23.010Z,80.92041
2023-03-26T07:03:32.762Z,80.859375
2023-03-26T07:04:42.584Z,80.963135
2023-03-26T07:05:52.300Z,81.573486
2023-03-26T07:07:01.047Z,81.37207
2023-03-26T07:08:10.784Z,81.268311
2023-03-26T07:09:19.443Z,80.963135
2023-03-26T07:10:28.148Z,81.433105
2023-03-26T07:11:37.884Z,81.335449
2023-03-26T07:12:47.636Z,81.536865
2023-03-26T07:13:56.403Z,81.640625
2023-03-26T07:15:06.172Z,81.884766
2023-03-26T07:16:15.854Z,82.189941
2023-03-26T07:17:25.526Z,82.769775
2023-03-26T07:18:34.334Z,83.178711
2023-03-26T07:19:42.081Z,83.178711
2023-03-26T07:20:52.989Z,83.526611
2023-03-26T07:22:02.516Z,84.655762
2023-03-26T07:23:11.286Z,84.692383
2023-03-26T07:24:20.077Z,85.516357
2023-03-26T07:25:28.822Z,85.925293
2023-03-26T07:26:37.546Z,86.236572
2023-03-26T07:27:45.293Z,86.846924
2023-03-26T07:29:03.906Z,87.261963
2023-03-26T07:30:05.800Z,87.774658
2023-03-26T07:31:15.552Z,87.567139
2023-03-26T07:32:24.236Z,87.982178
2023-03-26T07:33:32.992Z,88.079834
2023-03-26T07:34:42.668Z,88.800049
2023-03-26T07:35:52.352Z,88.494873
2023-03-26T07:37:02.039Z,88.739014
2023-03-26T07:38:11.737Z,89.562988
2023-03-26T07:39:21.451Z,89.562988
2023-03-26T07:40:31.191Z,89.086914
2023-03-26T07:41:39.859Z,89.599609
2023-03-26T07:42:48.583Z,90.466309
2023-03-26T07:43:57.257Z,90.875244
2023-03-26T07:45:06.962Z,91.351318
2023-03-26T07:46:16.659Z,92.071533
2023-03-26T07:47:26.390Z,92.480469
2023-03-26T07:48:36.134Z,92.687988
2023-03-26T07:49:45.902Z,93.4021
2023-03-26T07:50:54.719Z,93.97583
2023-03-26T07:52:04.318Z,94.287109
2023-03-26T07:53:14.038Z,93.920898
2023-03-26T07:54:23.686Z,93.4021
2023-03-26T07:55:31.584Z,92.993164
2023-03-26T07:56:41.126Z,92.687988
2023-03-26T07:57:49.758Z,92.376709
2023-03-26T07:58:58.500Z,92.169189
2023-03-26T08:00:07.158Z,91.448975
2023-03-26T08:01:16.812Z,91.040039
2023-03-26T08:02:24.507Z,91.448975
2023-03-26T08:03:33.313Z,91.351318
2023-03-26T08:04:42.973Z,90.997314
2023-03-26T08:05:51.587Z,91.51001
2023-03-26T08:07:01.283Z,92.333984
2023-03-26T08:08:10.988Z,92.333984
2023-03-26T08:09:20.686Z,92.230225
2023-03-26T08:10:30.326Z,92.272949
2023-03-26T08:11:40.025Z,92.126465
2023-03-26T08:12:48.690Z,91.967773
2023-03-26T08:13:58.405Z,92.584229
2023-03-26T08:15:08.172Z,92.169189
2023-03-26T08:16:17.930Z,92.687988
2023-03-26T08:17:28.338Z,92.889404
2023-03-26T08:18:37.264Z,93.670654
2023-03-26T08:19:46.943Z,93.359375
2023-03-26T08:20:55.810Z,92.84668
2023-03-26T08:22:03.275Z,92.74292
2023-03-26T08:23:12.978Z,93.52417
2023-03-26T08:24:21.661Z,93.212891
2023-03-26T08:25:31.416Z,93.212891
2023-03-26T08:26:42.063Z,91.412354
2023-03-26T08:27:50.798Z,91.204834
2023-03-26T08:29:00.484Z,91.51001
2023-03-26T08:30:09.185Z,91.308594
2023-03-26T08:31:18.855Z,91.412354
2023-03-26T08:32:28.586Z,90.588379
2023-03-26T08:33:38.561Z,90.075684
2023-03-26T08:34:47.999Z,89.868164
2023-03-26T08:35:56.793Z,89.044189
2023-03-26T08:37:06.420Z,90.075684
2023-03-26T08:38:16.175Z,89.764404
2023-03-26T08:39:23.870Z,90.075684
2023-03-26T08:40:32.556Z,90.795898
2023-03-26T08:41:42.298Z,90.2771
2023-03-26T08:42:51.950Z,90.240479
2023-03-26T08:44:00.632Z,90.545654
2023-03-26T08:45:10.300Z,90.649414
2023-03-26T08:46:19.054Z,90.545654
2023-03-26T08:47:28.713Z,90.441895
2023-03-26T08:48:37.365Z,90.753174
2023-03-26T08:49:46.170Z,91.424561
2023-03-26T08:50:55.990Z,90.85083
2023-03-26T08:52:05.662Z,89.72168
2023-03-26T08:53:14.323Z,89.520264
2023-03-26T08:54:23.045Z,89.312744
2023-03-26T08:55:31.807Z,89.72168
2023-03-26T08:56:41.523Z,89.581299
2023-03-26T08:57:50.206Z,89.886475
2023-03-26T08:58:59.921Z,88.757324
2023-03-26T09:00:09.629Z,88.348389
2023-03-26T09:01:18.312Z,88.903809
2023-03-26T09:02:27.989Z,87.982178
2023-03-26T09:03:37.703Z,88.183594
2023-03-26T09:04:47.362Z,89.111328
2023-03-26T09:05:57.059Z,89.520264
2023-03-26T09:07:05.765Z,89.111328
2023-03-26T09:08:13.473Z,89.007568
2023-03-26T09:09:23.217Z,88.592529
2023-03-26T09:10:31.917Z,88.140869
2023-03-26T09:11:41.575Z,88.452148
2023-03-26T09:12:50.243Z,87.731934
2023-03-26T09:13:59.994Z,86.193848
2023-03-26T09:15:09.685Z,85.681152
2023-03-26T09:16:17.412Z,85.308838
2023-03-26T09:17:26.047Z,85.107422
2023-03-26T09:18:35.745Z,84.387207
2023-03-26T09:19:45.583Z,85.205078
2023-03-26T09:20:54.498Z,85.717773
2023-03-26T09:22:02.976Z,86.334229
2023-03-26T09:23:12.613Z,87.365723
2023-03-26T09:24:21.323Z,87.774658
2023-03-26T09:25:30.077Z,87.261963
2023-03-26T09:26:38.775Z,86.437988
2023-03-26T09:27:47.438Z,87.567139
2023-03-26T09:28:56.133Z,87.670898
2023-03-26T09:30:04.852Z,88.391113
2023-03-26T09:31:14.573Z,87.670898
2023-03-26T09:32:24.283Z,88.592529
2023-03-26T09:33:33.942Z,88.659668
2023-03-26T09:34:41.634Z,89.068604
2023-03-26T09:35:50.322Z,89.477539
2023-03-26T09:36:59.995Z,88.964844
2023-03-26T09:38:09.678Z,89.007568
2023-03-26T09:39:18.386Z,89.208984
2023-03-26T09:40:27.090Z,89.825439
2023-03-26T09:41:36.783Z,90.338135
2023-03-26T09:42:46.522Z,90.85083
2023-03-26T09:43:56.221Z,90.95459
2023-03-26T09:45:03.937Z,91.204834
2023-03-26T09:46:13.695Z,92.028809
2023-03-26T09:47:23.293Z,91.925049
2023-03-26T09:48:32.012Z,92.230225
2023-03-26T09:49:40.721Z,92.028809
2023-03-26T09:50:50.473Z,92.230225
2023-03-26T09:52:00.297Z,92.126465
2023-03-26T09:53:08.964Z,91.821289
2023-03-26T09:54:18.645Z,91.656494
2023-03-26T09:55:27.349Z,92.376709
2023-03-26T09:56:39.084Z,92.74292
2023-03-26T09:57:45.757Z,93.255615
2023-03-26T09:58:55.372Z,93.566895
2023-03-26T10:00:05.086Z,93.463135
2023-03-26T10:01:13.830Z,93.463135
2023-03-26T10:02:23.581Z,92.74292
2023-03-26T10:03:34.250Z,93.359375
2023-03-26T10:04:42.937Z,93.566895
2023-03-26T10:05:52.772Z,93.713379
2023-03-26T10:07:01.575Z,94.18335
2023-03-26T10:08:11.218Z,94.18335
2023-03-26T10:09:19.893Z,93.609619
2023-03-26T10:10:29.677Z,93.359375
2023-03-26T10:11:39.341Z,93.566895
2023-03-26T10:12:49.050Z,94.07959
2023-03-26T10:13:58.767Z,94.342041
2023-03-26T10:15:08.484Z,94.342041
2023-03-26T10:16:18.285Z,94.342041
2023-03-26T10:17:27.932Z,93.829346
2023-03-26T10:18:36.631Z,93.829346
2023-03-26T10:19:44.319Z,93.933105
2023-03-26T10:20:54.332Z,92.028809
2023-03-26T10:22:02.756Z,92.437744
2023-03-26T10:23:11.436Z,93.054199
2023-03-26T10:24:20.176Z,93.359375
2023-03-26T10:25:28.911Z,92.74292
2023-03-26T10:26:38.608Z,92.84668
2023-03-26T10:27:49.370Z,93.31665
2023-03-26T10:28:59.098Z,93.31665
2023-03-26T10:30:08.868Z,93.31665
2023-03-26T10:31:17.719Z,93.31665
2023-03-26T10:32:27.418Z,93.42041
2023-03-26T10:33:37.140Z,93.52417
2023-03-26T10:34:46.907Z,93.011475
2023-03-26T10:35:56.662Z,92.907715
2023-03-26T10:37:04.338Z,93.115234
2023-03-26T10:38:13.057Z,92.803955
2023-03-26T10:39:36.448Z,93.42041
2023-03-26T10:40:33.525Z,93.725586
2023-03-26T10:41:43.264Z,93.62793
2023-03-26T10:42:52.965Z,93.52417
2023-03-26T10:44:08.302Z,93.212891
2023-03-26T10:45:13.413Z,93.115234
2023-03-26T10:46:21.212Z,93.115234
2023-03-26T10:47:31.953Z,93.011475
2023-03-26T10:48:41.649Z,93.31665
2023-03-26T10:49:50.319Z,93.725586
2023-03-26T10:51:00.100Z,94.244385
2023-03-26T10:52:09.755Z,94.958496
2023-03-26T10:53:19.452Z,95.678711
2023-03-26T10:54:29.221Z,95.721436
2023-03-26T10:55:37.938Z,96.136475
2023-03-26T10:56:46.684Z,96.337891
2023-03-26T10:57:56.347Z,96.64917
2023-03-26T10:59:05.045Z,97.161865
2023-03-26T11:00:14.715Z,97.058105
2023-03-26T11:01:23.420Z,96.954346
2023-03-26T11:02:33.092Z,97.570801
2023-03-26T11:03:42.781Z,97.570801
2023-03-26T11:04:52.475Z,97.98584
2023-03-26T11:06:02.184Z,97.98584
2023-03-26T11:07:11.910Z,96.44165
2023-03-26T11:08:21.639Z,96.44165
2023-03-26T11:09:32.345Z,96.64917
2023-03-26T11:10:42.098Z,96.75293
2023-03-26T11:11:51.786Z,97.265625
2023-03-26T11:13:02.247Z,97.369385
2023-03-26T11:14:12.685Z,96.954346
2023-03-26T11:15:20.913Z,97.058105
2023-03-26T11:16:30.596Z,97.674561
2023-03-26T11:17:41.521Z,97.467041
2023-03-26T11:18:49.080Z,97.88208
2023-03-26T11:19:57.810Z,97.77832
2023-03-26T11:21:18.328Z,97.570801
2023-03-26T11:22:18.164Z,97.833252
2023-03-26T11:23:26.875Z,97.729492
2023-03-26T11:24:36.512Z,97.570801
2023-03-26T11:25:46.248Z,97.570801
2023-03-26T11:26:54.926Z,97.631836
2023-03-26T11:28:05.645Z,97.570801
2023-03-26T11:29:32.107Z,97.98584
2023-03-26T11:30:27.014Z,97.98584
2023-03-26T11:31:36.807Z,97.937012
2023-03-26T11:32:45.496Z,98.144531
2023-03-26T11:33:56.013Z,98.144531
2023-03-26T11:35:03.868Z,97.216797
2023-03-26T11:36:13.550Z,97.369385
2023-03-26T11:37:23.231Z,96.44165
2023-03-26T11:38:32.931Z,95.678711
2023-03-26T11:39:41.616Z,95.721436
2023-03-26T11:40:51.353Z,95.928955
2023-03-26T11:42:00.131Z,96.191406
2023-03-26T11:43:07.776Z,96.44165
2023-03-26T11:44:17.474Z,96.44165
2023-03-26T11:45:27.209Z,96.54541
2023-03-26T11:46:35.940Z,96.691895
2023-03-26T11:47:45.625Z,96.795654
2023-03-26T11:48:54.290Z,97.619629
2023-03-26T11:50:03.981Z,97.149658
2023-03-26T11:51:11.703Z,97.924805
2023-03-26T11:52:21.354Z,97.662354
2023-03-26T11:53:31.062Z,97.253418
2023-03-26T11:54:40.773Z,97.253418
2023-03-26T11:55:49.516Z,97.558594
2023-03-26T11:57:04.295Z,97.662354
2023-03-26T11:58:11.119Z,97.558594
2023-03-26T11:59:21.723Z,98.071289
2023-03-26T12:00:29.870Z,97.973633
2023-03-26T12:01:39.629Z,98.223877
2023-03-26T12:02:48.381Z,98.278809
2023-03-26T12:03:58.123Z,98.693848
2023-03-26T12:05:07.778Z,98.791504
2023-03-26T12:06:17.479Z,98.791504
2023-03-26T12:07:27.187Z,98.999023
2023-03-26T12:08:36.947Z,98.175049
2023-03-26T12:09:46.754Z,98.693848
2023-03-26T12:10:56.560Z,98.748779
2023-03-26T12:12:05.159Z,98.4375
2023-03-26T12:13:13.858Z,98.132324
2023-03-26T12:14:22.573Z,97.717285
2023-03-26T12:15:32.301Z,97.98584
2023-03-26T12:16:41.138Z,97.88208
2023-03-26T12:17:50.825Z,97.265625
2023-03-26T12:18:59.517Z,97.833252
2023-03-26T12:20:08.178Z,97.729492
2023-03-26T12:21:16.939Z,97.479248
2023-03-26T12:22:25.667Z,96.820068
2023-03-26T12:23:35.389Z,96.716309
2023-03-26T12:24:45.072Z,96.97876
2023-03-26T12:25:52.756Z,95.855713
2023-03-26T12:27:01.459Z,95.751953
2023-03-26T12:28:11.203Z,95.605469
2023-03-26T12:29:19.870Z,95.397949
2023-03-26T12:30:28.600Z,94.171143
2023-03-26T12:31:37.321Z,93.450928
2023-03-26T12:32:47.124Z,93.554688
2023-03-26T12:33:59.009Z,93.756104
2023-03-26T12:35:06.381Z,94.476318
2023-03-26T12:36:14.060Z,93.756104
2023-03-26T12:37:23.768Z,93.597412
2023-03-26T12:38:33.534Z,93.597412
2023-03-26T12:40:08.560Z,93.493652
2023-03-26T12:40:53.953Z,93.597412
2023-03-26T12:42:26.089Z,94.476318
2023-03-26T12:44:51.996Z,94.171143
2023-03-26T12:44:52.465Z,94.580078
2023-03-26T12:45:35.556Z,93.554688
2023-03-26T12:47:55.759Z,92.736816
2023-03-26T12:48:02.010Z,93.249512
2023-03-26T12:49:05.669Z,93.249512
2023-03-26T12:50:14.301Z,92.529297
2023-03-26T12:51:22.994Z,92.633057
2023-03-26T12:52:32.762Z,92.999268
2023-03-26T12:53:41.484Z,92.999268
2023-03-26T12:54:51.220Z,93.200684
2023-03-26T12:56:00.916Z,92.382812
2023-03-26T12:57:11.529Z,92.999268
2023-03-26T12:58:20.262Z,92.077637
2023-03-26T12:59:30.020Z,91.564941
2023-03-26T13:00:38.752Z,91.259766
2023-03-26T13:01:48.482Z,91.052246
2023-03-26T13:02:56.207Z,91.259766
2023-03-26T13:04:04.804Z,91.156006
2023-03-26T13:05:15.472Z,90.948486
2023-03-26T13:06:24.168Z,90.539551
2023-03-26T13:07:32.900Z,89.923096
2023-03-26T13:08:41.695Z,89.312744
2023-03-26T13:09:52.815Z,89.923096
2023-03-26T13:11:00.311Z,89.825439
2023-03-26T13:12:09.078Z,89.72168
2023-03-26T13:13:18.805Z,89.923096
2023-03-26T13:14:28.532Z,89.416504
2023-03-26T13:15:38.316Z,89.105225